Terminal Aerodrome Forecast
Issued by NWS Wilmington, OH

Current Version | Previous Version | Graphics & Text | Print | Product List | Glossary On
Versions: 1 2 3 4 5 6 7 8 9 10 11 12 13 14 15 16 17 18 19
000
FTUS41 KILN 171139
TAFDAY
TAF
KDAY 171139Z 1712/1812 16008KT P6SM SCT140 OVC200
     FM171400 22012G20KT P6SM SCT200
     FM180000 22011KT P6SM FEW250
     FM180900 21010KT P6SM BKN200=

USA.gov is the U.S. government's official web portal to all federal, state and local government web resources and services.